sensor_id;sensor_type;location;lat;lon;timestamp;P1;durP1;ratioP1;P2;durP2;ratioP2
12878;SDS011;20617;49.476;10.986;2022-10-20T00:00:22;13.85;;;6.07;;
12878;SDS011;20617;49.476;10.986;2022-10-20T00:02:29;8.20;;;5.90;;
12878;SDS011;20617;49.476;10.986;2022-10-20T00:04:37;7.55;;;5.35;;
12878;SDS011;20617;49.476;10.986;2022-10-20T00:06:42;6.22;;;5.00;;
12878;SDS011;20617;49.476;10.986;2022-10-20T00:08:47;9.30;;;5.72;;
12878;SDS011;20617;49.476;10.986;2022-10-20T00:10:52;8.10;;;5.32;;
12878;SDS011;20617;49.476;10.986;2022-10-20T00:12:57;10.95;;;5.35;;
12878;SDS011;20617;49.476;10.986;2022-10-20T00:15:02;7.65;;;5.25;;
12878;SDS011;20617;49.476;10.986;2022-10-20T00:17:08;12.55;;;4.78;;
12878;SDS011;20617;49.476;10.986;2022-10-20T00:19:13;8.60;;;5.30;;
12878;SDS011;20617;49.476;10.986;2022-10-20T00:21:21;8.93;;;5.05;;
12878;SDS011;20617;49.476;10.986;2022-10-20T00:23:27;9.07;;;5.38;;
12878;SDS011;20617;49.476;10.986;2022-10-20T00:25:32;8.07;;;5.38;;
12878;SDS011;20617;49.476;10.986;2022-10-20T00:27:37;7.70;;;5.57;;
12878;SDS011;20617;49.476;10.986;2022-10-20T00:29:42;8.13;;;4.63;;
12878;SDS011;20617;49.476;10.986;2022-10-20T00:31:46;7.35;;;5.43;;
12878;SDS011;20617;49.476;10.986;2022-10-20T00:33:51;7.68;;;5.22;;
12878;SDS011;20617;49.476;10.986;2022-10-20T00:35:57;10.80;;;5.65;;
12878;SDS011;20617;49.476;10.986;2022-10-20T00:40:09;8.07;;;5.20;;
12878;SDS011;20617;49.476;10.986;2022-10-20T00:42:15;6.65;;;4.97;;
12878;SDS011;20617;49.476;10.986;2022-10-20T00:46:54;8.32;;;5.57;;
12878;SDS011;20617;49.476;10.986;2022-10-20T00:49:01;6.10;;;4.50;;
12878;SDS011;20617;49.476;10.986;2022-10-20T00:51:10;6.28;;;4.72;;
12878;SDS011;20617;49.476;10.986;2022-10-20T00:53:20;5.45;;;4.45;;
12878;SDS011;20617;49.476;10.986;2022-10-20T00:55:28;8.23;;;4.70;;
12878;SDS011;20617;49.476;10.986;2022-10-20T00:57:35;6.57;;;5.25;;
12878;SDS011;20617;49.476;10.986;2022-10-20T01:01:45;6.88;;;4.90;;
12878;SDS011;20617;49.476;10.986;2022-10-20T01:03:50;8.30;;;5.28;;
12878;SDS011;20617;49.476;10.986;2022-10-20T01:05:55;8.05;;;4.55;;
12878;SDS011;20617;49.476;10.986;2022-10-20T01:08:01;7.90;;;4.55;;
12878;SDS011;20617;49.476;10.986;2022-10-20T01:10:08;6.00;;;4.43;;
12878;SDS011;20617;49.476;10.986;2022-10-20T01:12:18;6.32;;;3.90;;
12878;SDS011;20617;49.476;10.986;2022-10-20T01:14:32;8.15;;;5.10;;
12878;SDS011;20617;49.476;10.986;2022-10-20T01:16:46;5.77;;;4.70;;
12878;SDS011;20617;49.476;10.986;2022-10-20T01:19:02;9.60;;;4.63;;
12878;SDS011;20617;49.476;10.986;2022-10-20T01:21:33;5.95;;;4.50;;
12878;SDS011;20617;49.476;10.986;2022-10-20T01:26:45;8.48;;;4.78;;
12878;SDS011;20617;49.476;10.986;2022-10-20T01:29:08;5.97;;;4.60;;
12878;SDS011;20617;49.476;10.986;2022-10-20T01:31:20;8.07;;;4.82;;
12878;SDS011;20617;49.476;10.986;2022-10-20T01:33:34;7.85;;;5.28;;
12878;SDS011;20617;49.476;10.986;2022-10-20T01:35:48;10.35;;;4.82;;
12878;SDS011;20617;49.476;10.986;2022-10-20T01:38:00;7.97;;;5.10;;
12878;SDS011;20617;49.476;10.986;2022-10-20T01:40:12;7.13;;;5.45;;
12878;SDS011;20617;49.476;10.986;2022-10-20T01:42:26;7.78;;;4.82;;
12878;SDS011;20617;49.476;10.986;2022-10-20T01:44:34;5.75;;;4.88;;
12878;SDS011;20617;49.476;10.986;2022-10-20T01:46:40;6.15;;;5.15;;
12878;SDS011;20617;49.476;10.986;2022-10-20T01:48:47;8.10;;;5.15;;
12878;SDS011;20617;49.476;10.986;2022-10-20T01:50:53;9.75;;;5.10;;
12878;SDS011;20617;49.476;10.986;2022-10-20T01:55:08;7.38;;;4.97;;
12878;SDS011;20617;49.476;10.986;2022-10-20T01:57:23;9.18;;;5.32;;
12878;SDS011;20617;49.476;10.986;2022-10-20T01:59:44;8.93;;;5.40;;
12878;SDS011;20617;49.476;10.986;2022-10-20T02:02:05;8.10;;;5.75;;
12878;SDS011;20617;49.476;10.986;2022-10-20T02:04:23;9.38;;;5.03;;
12878;SDS011;20617;49.476;10.986;2022-10-20T02:06:37;7.55;;;4.72;;
12878;SDS011;20617;49.476;10.986;2022-10-20T02:08:46;8.88;;;5.43;;
12878;SDS011;20617;49.476;10.986;2022-10-20T02:10:55;10.65;;;5.85;;
12878;SDS011;20617;49.476;10.986;2022-10-20T02:13:03;8.95;;;5.32;;
12878;SDS011;20617;49.476;10.986;2022-10-20T02:15:13;7.85;;;5.55;;
12878;SDS011;20617;49.476;10.986;2022-10-20T02:17:21;6.15;;;5.28;;
12878;SDS011;20617;49.476;10.986;2022-10-20T02:19:30;8.35;;;5.57;;
12878;SDS011;20617;49.476;10.986;2022-10-20T02:21:39;5.90;;;5.05;;
12878;SDS011;20617;49.476;10.986;2022-10-20T02:23:44;8.40;;;5.78;;
12878;SDS011;20617;49.476;10.986;2022-10-20T02:25:52;9.98;;;6.63;;
12878;SDS011;20617;49.476;10.986;2022-10-20T02:28:02;9.57;;;6.45;;
12878;SDS011;20617;49.476;10.986;2022-10-20T02:30:10;9.85;;;6.13;;
12878;SDS011;20617;49.476;10.986;2022-10-20T02:32:20;7.43;;;5.82;;
12878;SDS011;20617;49.476;10.986;2022-10-20T02:34:27;6.82;;;6.13;;
12878;SDS011;20617;49.476;10.986;2022-10-20T02:36:35;7.68;;;6.00;;
12878;SDS011;20617;49.476;10.986;2022-10-20T02:38:41;9.73;;;6.00;;
12878;SDS011;20617;49.476;10.986;2022-10-20T02:40:46;7.88;;;5.32;;
12878;SDS011;20617;49.476;10.986;2022-10-20T02:42:51;7.22;;;6.25;;
12878;SDS011;20617;49.476;10.986;2022-10-20T02:44:56;10.40;;;6.25;;
12878;SDS011;20617;49.476;10.986;2022-10-20T02:47:03;8.45;;;6.28;;
12878;SDS011;20617;49.476;10.986;2022-10-20T02:49:08;6.95;;;5.95;;
12878;SDS011;20617;49.476;10.986;2022-10-20T02:51:13;9.75;;;6.20;;
12878;SDS011;20617;49.476;10.986;2022-10-20T02:53:18;8.10;;;5.80;;
12878;SDS011;20617;49.476;10.986;2022-10-20T02:55:23;13.15;;;6.43;;
12878;SDS011;20617;49.476;10.986;2022-10-20T02:57:27;10.05;;;6.30;;
12878;SDS011;20617;49.476;10.986;2022-10-20T02:59:33;8.75;;;6.72;;
12878;SDS011;20617;49.476;10.986;2022-10-20T03:01:38;9.70;;;6.50;;
12878;SDS011;20617;49.476;10.986;2022-10-20T03:03:45;9.23;;;6.40;;
12878;SDS011;20617;49.476;10.986;2022-10-20T03:05:50;10.80;;;6.85;;
12878;SDS011;20617;49.476;10.986;2022-10-20T03:07:55;8.27;;;6.80;;
12878;SDS011;20617;49.476;10.986;2022-10-20T03:10:00;10.18;;;6.65;;
12878;SDS011;20617;49.476;10.986;2022-10-20T03:12:05;8.27;;;6.55;;
12878;SDS011;20617;49.476;10.986;2022-10-20T03:14:10;11.52;;;6.85;;
12878;SDS011;20617;49.476;10.986;2022-10-20T03:16:15;8.43;;;6.35;;
12878;SDS011;20617;49.476;10.986;2022-10-20T03:18:19;9.60;;;6.70;;
12878;SDS011;20617;49.476;10.986;2022-10-20T03:20:31;17.48;;;6.70;;
12878;SDS011;20617;49.476;10.986;2022-10-20T03:22:36;12.00;;;6.82;;
12878;SDS011;20617;49.476;10.986;2022-10-20T03:24:41;8.77;;;7.15;;
12878;SDS011;20617;49.476;10.986;2022-10-20T03:26:45;8.80;;;6.80;;
12878;SDS011;20617;49.476;10.986;2022-10-20T03:28:50;9.73;;;6.35;;
12878;SDS011;20617;49.476;10.986;2022-10-20T03:30:55;10.80;;;7.05;;
12878;SDS011;20617;49.476;10.986;2022-10-20T03:33:00;10.30;;;6.85;;
12878;SDS011;20617;49.476;10.986;2022-10-20T03:35:06;12.32;;;8.00;;
12878;SDS011;20617;49.476;10.986;2022-10-20T03:37:13;8.48;;;6.72;;
12878;SDS011;20617;49.476;10.986;2022-10-20T03:39:18;9.40;;;6.53;;
12878;SDS011;20617;49.476;10.986;2022-10-20T03:41:23;9.50;;;7.05;;
12878;SDS011;20617;49.476;10.986;2022-10-20T03:45:33;10.73;;;7.45;;
12878;SDS011;20617;49.476;10.986;2022-10-20T03:47:38;7.78;;;6.20;;
12878;SDS011;20617;49.476;10.986;2022-10-20T03:49:42;11.95;;;6.97;;
12878;SDS011;20617;49.476;10.986;2022-10-20T03:51:47;10.57;;;8.00;;
12878;SDS011;20617;49.476;10.986;2022-10-20T03:53:55;10.30;;;6.88;;
12878;SDS011;20617;49.476;10.986;2022-10-20T03:56:03;8.38;;;7.47;;
12878;SDS011;20617;49.476;10.986;2022-10-20T03:58:08;7.97;;;6.80;;
12878;SDS011;20617;49.476;10.986;2022-10-20T04:00:13;11.45;;;7.78;;
12878;SDS011;20617;49.476;10.986;2022-10-20T04:02:21;9.63;;;7.93;;
12878;SDS011;20617;49.476;10.986;2022-10-20T04:04:36;9.48;;;7.45;;
12878;SDS011;20617;49.476;10.986;2022-10-20T04:06:41;9.95;;;7.47;;
12878;SDS011;20617;49.476;10.986;2022-10-20T04:08:46;13.02;;;7.22;;
12878;SDS011;20617;49.476;10.986;2022-10-20T04:10:54;13.52;;;8.52;;
12878;SDS011;20617;49.476;10.986;2022-10-20T04:12:59;8.63;;;7.20;;
12878;SDS011;20617;49.476;10.986;2022-10-20T04:17:09;10.67;;;7.10;;
12878;SDS011;20617;49.476;10.986;2022-10-20T04:19:14;9.25;;;7.55;;
12878;SDS011;20617;49.476;10.986;2022-10-20T04:21:19;9.50;;;7.07;;
12878;SDS011;20617;49.476;10.986;2022-10-20T04:23:25;9.63;;;7.63;;
12878;SDS011;20617;49.476;10.986;2022-10-20T04:25:30;10.00;;;7.57;;
12878;SDS011;20617;49.476;10.986;2022-10-20T04:27:37;10.18;;;7.20;;
12878;SDS011;20617;49.476;10.986;2022-10-20T04:29:42;12.07;;;7.53;;
12878;SDS011;20617;49.476;10.986;2022-10-20T04:31:47;12.50;;;7.70;;
12878;SDS011;20617;49.476;10.986;2022-10-20T04:33:52;14.55;;;8.57;;
12878;SDS011;20617;49.476;10.986;2022-10-20T04:35:57;9.48;;;7.57;;
12878;SDS011;20617;49.476;10.986;2022-10-20T04:38:02;10.48;;;7.68;;
12878;SDS011;20617;49.476;10.986;2022-10-20T04:40:10;10.10;;;7.45;;
12878;SDS011;20617;49.476;10.986;2022-10-20T04:42:15;9.10;;;7.32;;
12878;SDS011;20617;49.476;10.986;2022-10-20T04:44:22;11.20;;;7.80;;
12878;SDS011;20617;49.476;10.986;2022-10-20T04:46:27;12.05;;;8.40;;
12878;SDS011;20617;49.476;10.986;2022-10-20T04:48:32;9.23;;;7.40;;
12878;SDS011;20617;49.476;10.986;2022-10-20T04:50:37;12.80;;;7.90;;
12878;SDS011;20617;49.476;10.986;2022-10-20T04:52:42;14.65;;;8.43;;
12878;SDS011;20617;49.476;10.986;2022-10-20T04:54:47;10.20;;;7.97;;
12878;SDS011;20617;49.476;10.986;2022-10-20T04:56:52;12.27;;;8.40;;
12878;SDS011;20617;49.476;10.986;2022-10-20T04:58:57;10.32;;;8.38;;
12878;SDS011;20617;49.476;10.986;2022-10-20T05:01:07;12.38;;;8.10;;
12878;SDS011;20617;49.476;10.986;2022-10-20T05:03:13;13.43;;;9.27;;
12878;SDS011;20617;49.476;10.986;2022-10-20T05:05:19;11.93;;;8.50;;
12878;SDS011;20617;49.476;10.986;2022-10-20T05:07:26;10.73;;;8.02;;
12878;SDS011;20617;49.476;10.986;2022-10-20T05:09:32;11.80;;;8.63;;
12878;SDS011;20617;49.476;10.986;2022-10-20T05:11:38;11.48;;;9.50;;
12878;SDS011;20617;49.476;10.986;2022-10-20T05:13:42;13.10;;;9.60;;
12878;SDS011;20617;49.476;10.986;2022-10-20T05:15:50;12.07;;;9.15;;
12878;SDS011;20617;49.476;10.986;2022-10-20T05:17:58;11.13;;;8.77;;
12878;SDS011;20617;49.476;10.986;2022-10-20T05:20:03;10.95;;;8.20;;
12878;SDS011;20617;49.476;10.986;2022-10-20T05:22:09;13.20;;;9.57;;
12878;SDS011;20617;49.476;10.986;2022-10-20T05:24:14;11.10;;;9.10;;
12878;SDS011;20617;49.476;10.986;2022-10-20T05:26:23;10.48;;;7.93;;
12878;SDS011;20617;49.476;10.986;2022-10-20T05:28:30;11.57;;;9.70;;
12878;SDS011;20617;49.476;10.986;2022-10-20T05:30:35;11.27;;;9.35;;
12878;SDS011;20617;49.476;10.986;2022-10-20T05:32:40;11.60;;;9.10;;
12878;SDS011;20617;49.476;10.986;2022-10-20T05:34:47;11.88;;;10.05;;
12878;SDS011;20617;49.476;10.986;2022-10-20T05:36:52;12.90;;;9.13;;
12878;SDS011;20617;49.476;10.986;2022-10-20T05:38:57;15.18;;;9.68;;
12878;SDS011;20617;49.476;10.986;2022-10-20T05:41:05;11.77;;;9.57;;
12878;SDS011;20617;49.476;10.986;2022-10-20T05:43:11;13.60;;;9.77;;
12878;SDS011;20617;49.476;10.986;2022-10-20T05:45:17;11.30;;;8.85;;
12878;SDS011;20617;49.476;10.986;2022-10-20T05:47:22;12.07;;;9.82;;
12878;SDS011;20617;49.476;10.986;2022-10-20T05:49:27;12.80;;;10.30;;
12878;SDS011;20617;49.476;10.986;2022-10-20T05:51:35;13.05;;;10.40;;
12878;SDS011;20617;49.476;10.986;2022-10-20T05:53:40;13.68;;;10.82;;
12878;SDS011;20617;49.476;10.986;2022-10-20T05:55:44;15.30;;;10.15;;
12878;SDS011;20617;49.476;10.986;2022-10-20T05:57:49;14.93;;;11.68;;
12878;SDS011;20617;49.476;10.986;2022-10-20T05:59:55;14.45;;;10.90;;
12878;SDS011;20617;49.476;10.986;2022-10-20T06:02:00;17.77;;;11.43;;
12878;SDS011;20617;49.476;10.986;2022-10-20T06:04:04;15.25;;;11.15;;
12878;SDS011;20617;49.476;10.986;2022-10-20T06:06:11;15.25;;;11.20;;
12878;SDS011;20617;49.476;10.986;2022-10-20T06:08:18;15.30;;;10.52;;
12878;SDS011;20617;49.476;10.986;2022-10-20T06:10:23;14.50;;;12.10;;
12878;SDS011;20617;49.476;10.986;2022-10-20T06:12:28;13.55;;;10.90;;
12878;SDS011;20617;49.476;10.986;2022-10-20T06:14:34;13.60;;;10.25;;
12878;SDS011;20617;49.476;10.986;2022-10-20T06:16:39;14.77;;;11.48;;
12878;SDS011;20617;49.476;10.986;2022-10-20T06:18:44;13.45;;;10.50;;
12878;SDS011;20617;49.476;10.986;2022-10-20T06:20:57;14.25;;;10.73;;
12878;SDS011;20617;49.476;10.986;2022-10-20T06:23:02;22.48;;;11.65;;
12878;SDS011;20617;49.476;10.986;2022-10-20T06:25:10;13.52;;;11.07;;
12878;SDS011;20617;49.476;10.986;2022-10-20T06:27:14;14.07;;;10.63;;
12878;SDS011;20617;49.476;10.986;2022-10-20T06:29:19;11.88;;;10.20;;
12878;SDS011;20617;49.476;10.986;2022-10-20T06:31:25;11.45;;;10.32;;
12878;SDS011;20617;49.476;10.986;2022-10-20T06:33:31;15.85;;;11.18;;
12878;SDS011;20617;49.476;10.986;2022-10-20T06:35:35;16.33;;;11.38;;
12878;SDS011;20617;49.476;10.986;2022-10-20T06:37:40;12.32;;;10.52;;
12878;SDS011;20617;49.476;10.986;2022-10-20T06:39:45;11.20;;;9.57;;
12878;SDS011;20617;49.476;10.986;2022-10-20T06:41:53;11.95;;;9.85;;
12878;SDS011;20617;49.476;10.986;2022-10-20T06:44:05;13.82;;;10.65;;
12878;SDS011;20617;49.476;10.986;2022-10-20T06:46:10;14.45;;;10.68;;
12878;SDS011;20617;49.476;10.986;2022-10-20T06:48:17;14.00;;;10.25;;
12878;SDS011;20617;49.476;10.986;2022-10-20T06:50:22;13.52;;;10.30;;
12878;SDS011;20617;49.476;10.986;2022-10-20T06:52:29;17.38;;;10.15;;
12878;SDS011;20617;49.476;10.986;2022-10-20T06:56:39;13.48;;;11.10;;
12878;SDS011;20617;49.476;10.986;2022-10-20T06:58:47;11.85;;;10.57;;
12878;SDS011;20617;49.476;10.986;2022-10-20T07:00:56;15.02;;;11.27;;
12878;SDS011;20617;49.476;10.986;2022-10-20T07:03:07;14.90;;;10.55;;
12878;SDS011;20617;49.476;10.986;2022-10-20T07:05:12;13.70;;;10.27;;
12878;SDS011;20617;49.476;10.986;2022-10-20T07:07:17;13.23;;;11.35;;
12878;SDS011;20617;49.476;10.986;2022-10-20T07:09:21;13.65;;;10.82;;
12878;SDS011;20617;49.476;10.986;2022-10-20T07:11:27;16.60;;;10.55;;
12878;SDS011;20617;49.476;10.986;2022-10-20T07:13:33;13.70;;;9.95;;
12878;SDS011;20617;49.476;10.986;2022-10-20T07:15:42;11.85;;;9.95;;
12878;SDS011;20617;49.476;10.986;2022-10-20T07:17:49;14.52;;;10.35;;
12878;SDS011;20617;49.476;10.986;2022-10-20T07:19:54;14.32;;;10.40;;
12878;SDS011;20617;49.476;10.986;2022-10-20T07:21:59;15.88;;;11.57;;
12878;SDS011;20617;49.476;10.986;2022-10-20T07:24:04;11.85;;;9.73;;
12878;SDS011;20617;49.476;10.986;2022-10-20T07:26:10;13.93;;;9.77;;
12878;SDS011;20617;49.476;10.986;2022-10-20T07:28:17;11.65;;;9.88;;
12878;SDS011;20617;49.476;10.986;2022-10-20T07:30:22;14.63;;;10.65;;
12878;SDS011;20617;49.476;10.986;2022-10-20T07:32:30;13.05;;;9.38;;
12878;SDS011;20617;49.476;10.986;2022-10-20T07:34:35;14.48;;;10.43;;
12878;SDS011;20617;49.476;10.986;2022-10-20T07:36:41;14.48;;;9.52;;
12878;SDS011;20617;49.476;10.986;2022-10-20T07:38:47;16.65;;;10.45;;
12878;SDS011;20617;49.476;10.986;2022-10-20T07:40:52;13.50;;;11.57;;
12878;SDS011;20617;49.476;10.986;2022-10-20T07:43:01;16.98;;;10.65;;
12878;SDS011;20617;49.476;10.986;2022-10-20T07:45:06;16.10;;;11.02;;
12878;SDS011;20617;49.476;10.986;2022-10-20T07:47:11;15.40;;;11.20;;
12878;SDS011;20617;49.476;10.986;2022-10-20T07:49:19;18.63;;;10.00;;
12878;SDS011;20617;49.476;10.986;2022-10-20T07:51:44;15.07;;;11.38;;
12878;SDS011;20617;49.476;10.986;2022-10-20T07:53:49;13.27;;;11.05;;
12878;SDS011;20617;49.476;10.986;2022-10-20T07:56:00;17.00;;;11.40;;
12878;SDS011;20617;49.476;10.986;2022-10-20T07:58:05;15.13;;;10.98;;
12878;SDS011;20617;49.476;10.986;2022-10-20T08:00:10;13.85;;;10.60;;
12878;SDS011;20617;49.476;10.986;2022-10-20T08:02:16;16.20;;;10.63;;
12878;SDS011;20617;49.476;10.986;2022-10-20T08:04:23;16.80;;;11.38;;
12878;SDS011;20617;49.476;10.986;2022-10-20T08:06:32;13.07;;;10.45;;
12878;SDS011;20617;49.476;10.986;2022-10-20T08:08:39;15.00;;;11.52;;
12878;SDS011;20617;49.476;10.986;2022-10-20T08:10:44;13.65;;;11.02;;
12878;SDS011;20617;49.476;10.986;2022-10-20T08:12:49;12.88;;;9.93;;
12878;SDS011;20617;49.476;10.986;2022-10-20T08:14:54;15.55;;;10.48;;
12878;SDS011;20617;49.476;10.986;2022-10-20T08:17:13;17.65;;;10.70;;
12878;SDS011;20617;49.476;10.986;2022-10-20T08:19:34;14.15;;;10.45;;
12878;SDS011;20617;49.476;10.986;2022-10-20T08:21:59;12.35;;;10.05;;
12878;SDS011;20617;49.476;10.986;2022-10-20T08:24:04;12.55;;;9.45;;
12878;SDS011;20617;49.476;10.986;2022-10-20T08:28:14;13.15;;;10.43;;
12878;SDS011;20617;49.476;10.986;2022-10-20T08:30:23;12.50;;;8.95;;
12878;SDS011;20617;49.476;10.986;2022-10-20T08:32:28;11.73;;;8.30;;
12878;SDS011;20617;49.476;10.986;2022-10-20T08:34:39;13.27;;;8.85;;
12878;SDS011;20617;49.476;10.986;2022-10-20T08:36:45;11.98;;;8.82;;
12878;SDS011;20617;49.476;10.986;2022-10-20T08:38:50;13.07;;;9.27;;
12878;SDS011;20617;49.476;10.986;2022-10-20T08:40:55;10.68;;;8.52;;
12878;SDS011;20617;49.476;10.986;2022-10-20T08:43:03;10.27;;;8.32;;
12878;SDS011;20617;49.476;10.986;2022-10-20T08:45:12;9.82;;;7.97;;
12878;SDS011;20617;49.476;10.986;2022-10-20T08:47:22;9.95;;;7.93;;
12878;SDS011;20617;49.476;10.986;2022-10-20T08:49:34;11.73;;;7.10;;
12878;SDS011;20617;49.476;10.986;2022-10-20T08:51:41;8.93;;;6.93;;
12878;SDS011;20617;49.476;10.986;2022-10-20T08:53:50;8.65;;;6.75;;
12878;SDS011;20617;49.476;10.986;2022-10-20T08:55:57;10.13;;;6.60;;
12878;SDS011;20617;49.476;10.986;2022-10-20T08:58:02;9.43;;;6.38;;
12878;SDS011;20617;49.476;10.986;2022-10-20T09:00:16;6.72;;;5.82;;
12878;SDS011;20617;49.476;10.986;2022-10-20T09:02:21;8.60;;;6.05;;
12878;SDS011;20617;49.476;10.986;2022-10-20T09:04:35;7.10;;;6.07;;
12878;SDS011;20617;49.476;10.986;2022-10-20T09:06:52;12.38;;;6.80;;
12878;SDS011;20617;49.476;10.986;2022-10-20T09:09:01;8.18;;;6.20;;
12878;SDS011;20617;49.476;10.986;2022-10-20T09:11:07;9.90;;;6.68;;
12878;SDS011;20617;49.476;10.986;2022-10-20T09:13:18;8.25;;;6.20;;
12878;SDS011;20617;49.476;10.986;2022-10-20T09:15:27;11.02;;;6.68;;
12878;SDS011;20617;49.476;10.986;2022-10-20T09:17:35;9.48;;;6.57;;
12878;SDS011;20617;49.476;10.986;2022-10-20T09:19:40;11.50;;;6.35;;
12878;SDS011;20617;49.476;10.986;2022-10-20T09:21:53;7.95;;;6.00;;
12878;SDS011;20617;49.476;10.986;2022-10-20T09:24:02;7.13;;;5.70;;
12878;SDS011;20617;49.476;10.986;2022-10-20T09:26:12;6.40;;;5.25;;
12878;SDS011;20617;49.476;10.986;2022-10-20T09:28:38;10.68;;;6.00;;
12878;SDS011;20617;49.476;10.986;2022-10-20T09:31:03;7.82;;;5.55;;
12878;SDS011;20617;49.476;10.986;2022-10-20T09:33:34;8.55;;;5.60;;
12878;SDS011;20617;49.476;10.986;2022-10-20T09:35:39;12.32;;;6.50;;
12878;SDS011;20617;49.476;10.986;2022-10-20T09:37:50;12.43;;;7.25;;
12878;SDS011;20617;49.476;10.986;2022-10-20T09:39:58;9.23;;;6.38;;
12878;SDS011;20617;49.476;10.986;2022-10-20T09:42:06;11.27;;;6.18;;
12878;SDS011;20617;49.476;10.986;2022-10-20T09:44:17;6.88;;;5.93;;
12878;SDS011;20617;49.476;10.986;2022-10-20T09:46:27;8.05;;;5.97;;
12878;SDS011;20617;49.476;10.986;2022-10-20T09:48:35;10.00;;;5.93;;
12878;SDS011;20617;49.476;10.986;2022-10-20T09:50:45;7.50;;;6.13;;
12878;SDS011;20617;49.476;10.986;2022-10-20T09:52:58;8.52;;;6.95;;
12878;SDS011;20617;49.476;10.986;2022-10-20T09:55:06;7.35;;;5.30;;
12878;SDS011;20617;49.476;10.986;2022-10-20T09:57:22;9.70;;;5.80;;
12878;SDS011;20617;49.476;10.986;2022-10-20T09:59:28;7.15;;;5.85;;
12878;SDS011;20617;49.476;10.986;2022-10-20T10:01:40;8.05;;;5.50;;
12878;SDS011;20617;49.476;10.986;2022-10-20T10:03:56;7.65;;;5.45;;
12878;SDS011;20617;49.476;10.986;2022-10-20T10:08:42;9.27;;;5.68;;
12878;SDS011;20617;49.476;10.986;2022-10-20T10:11:02;8.70;;;6.15;;
12878;SDS011;20617;49.476;10.986;2022-10-20T10:13:18;6.30;;;5.18;;
12878;SDS011;20617;49.476;10.986;2022-10-20T10:15:28;9.13;;;5.47;;
12878;SDS011;20617;49.476;10.986;2022-10-20T10:17:35;7.05;;;5.07;;
12878;SDS011;20617;49.476;10.986;2022-10-20T10:19:41;10.63;;;5.60;;
12878;SDS011;20617;49.476;10.986;2022-10-20T10:21:57;7.05;;;5.28;;
12878;SDS011;20617;49.476;10.986;2022-10-20T10:24:10;9.43;;;5.13;;
12878;SDS011;20617;49.476;10.986;2022-10-20T10:26:42;6.20;;;5.45;;
12878;SDS011;20617;49.476;10.986;2022-10-20T10:28:49;9.48;;;5.57;;
12878;SDS011;20617;49.476;10.986;2022-10-20T10:31:05;9.32;;;4.82;;
12878;SDS011;20617;49.476;10.986;2022-10-20T10:33:23;8.40;;;5.85;;
12878;SDS011;20617;49.476;10.986;2022-10-20T10:35:31;9.93;;;5.72;;
12878;SDS011;20617;49.476;10.986;2022-10-20T10:37:40;5.80;;;4.82;;
12878;SDS011;20617;49.476;10.986;2022-10-20T10:39:51;11.18;;;5.30;;
12878;SDS011;20617;49.476;10.986;2022-10-20T10:41:59;9.40;;;5.72;;
12878;SDS011;20617;49.476;10.986;2022-10-20T10:44:29;7.10;;;5.57;;
12878;SDS011;20617;49.476;10.986;2022-10-20T10:46:50;6.00;;;4.65;;
12878;SDS011;20617;49.476;10.986;2022-10-20T10:49:17;8.32;;;5.40;;
12878;SDS011;20617;49.476;10.986;2022-10-20T10:51:39;12.32;;;6.00;;
12878;SDS011;20617;49.476;10.986;2022-10-20T10:53:56;5.80;;;4.72;;
12878;SDS011;20617;49.476;10.986;2022-10-20T10:56:17;5.88;;;4.97;;
12878;SDS011;20617;49.476;10.986;2022-10-20T10:58:38;5.57;;;4.70;;
12878;SDS011;20617;49.476;10.986;2022-10-20T11:00:51;9.25;;;4.80;;
12878;SDS011;20617;49.476;10.986;2022-10-20T11:03:15;6.57;;;5.20;;
12878;SDS011;20617;49.476;10.986;2022-10-20T11:05:47;10.68;;;4.85;;
12878;SDS011;20617;49.476;10.986;2022-10-20T11:08:02;7.78;;;5.20;;
12878;SDS011;20617;49.476;10.986;2022-10-20T11:10:16;9.38;;;5.32;;
12878;SDS011;20617;49.476;10.986;2022-10-20T11:12:44;6.72;;;4.45;;
12878;SDS011;20617;49.476;10.986;2022-10-20T11:15:05;6.32;;;4.88;;
12878;SDS011;20617;49.476;10.986;2022-10-20T11:17:29;6.45;;;4.35;;
12878;SDS011;20617;49.476;10.986;2022-10-20T11:19:55;7.38;;;4.93;;
12878;SDS011;20617;49.476;10.986;2022-10-20T11:22:11;8.30;;;5.50;;
12878;SDS011;20617;49.476;10.986;2022-10-20T11:24:39;5.88;;;4.28;;
12878;SDS011;20617;49.476;10.986;2022-10-20T11:26:55;6.38;;;4.50;;
12878;SDS011;20617;49.476;10.986;2022-10-20T11:29:08;5.50;;;4.22;;
12878;SDS011;20617;49.476;10.986;2022-10-20T11:31:21;6.45;;;4.38;;
12878;SDS011;20617;49.476;10.986;2022-10-20T11:33:33;6.53;;;4.47;;
12878;SDS011;20617;49.476;10.986;2022-10-20T11:35:47;7.82;;;4.82;;
12878;SDS011;20617;49.476;10.986;2022-10-20T11:38:00;8.32;;;3.67;;
12878;SDS011;20617;49.476;10.986;2022-10-20T11:40:20;6.40;;;4.70;;
12878;SDS011;20617;49.476;10.986;2022-10-20T11:42:34;8.15;;;4.53;;
12878;SDS011;20617;49.476;10.986;2022-10-20T11:44:47;6.97;;;4.55;;
12878;SDS011;20617;49.476;10.986;2022-10-20T11:46:55;5.55;;;3.83;;
12878;SDS011;20617;49.476;10.986;2022-10-20T11:49:03;9.07;;;4.50;;
12878;SDS011;20617;49.476;10.986;2022-10-20T11:51:16;6.53;;;5.15;;
12878;SDS011;20617;49.476;10.986;2022-10-20T11:53:47;7.35;;;3.83;;
12878;SDS011;20617;49.476;10.986;2022-10-20T11:56:12;5.40;;;4.10;;
12878;SDS011;20617;49.476;10.986;2022-10-20T12:01:23;7.00;;;4.30;;
12878;SDS011;20617;49.476;10.986;2022-10-20T12:03:47;5.47;;;4.28;;
12878;SDS011;20617;49.476;10.986;2022-10-20T12:06:15;7.18;;;4.15;;
12878;SDS011;20617;49.476;10.986;2022-10-20T12:08:34;5.03;;;3.75;;
12878;SDS011;20617;49.476;10.986;2022-10-20T12:10:55;6.18;;;4.43;;
12878;SDS011;20617;49.476;10.986;2022-10-20T12:13:14;4.93;;;3.90;;
12878;SDS011;20617;49.476;10.986;2022-10-20T12:15:29;8.80;;;4.20;;
12878;SDS011;20617;49.476;10.986;2022-10-20T12:17:37;5.75;;;4.30;;
12878;SDS011;20617;49.476;10.986;2022-10-20T12:19:50;5.03;;;3.45;;
12878;SDS011;20617;49.476;10.986;2022-10-20T12:21:56;4.63;;;3.83;;
12878;SDS011;20617;49.476;10.986;2022-10-20T12:24:27;7.10;;;4.00;;
12878;SDS011;20617;49.476;10.986;2022-10-20T12:26:38;7.03;;;3.83;;
12878;SDS011;20617;49.476;10.986;2022-10-20T12:34:31;9.43;;;4.20;;
12878;SDS011;20617;49.476;10.986;2022-10-20T12:36:42;7.68;;;4.35;;
12878;SDS011;20617;49.476;10.986;2022-10-20T12:38:48;5.72;;;3.53;;
12878;SDS011;20617;49.476;10.986;2022-10-20T12:40:56;5.18;;;3.75;;
12878;SDS011;20617;49.476;10.986;2022-10-20T12:43:03;4.72;;;3.80;;
12878;SDS011;20617;49.476;10.986;2022-10-20T12:45:20;4.72;;;3.60;;
12878;SDS011;20617;49.476;10.986;2022-10-20T12:47:30;5.88;;;3.67;;
12878;SDS011;20617;49.476;10.986;2022-10-20T12:49:41;7.43;;;3.70;;
12878;SDS011;20617;49.476;10.986;2022-10-20T12:51:57;4.55;;;3.22;;
12878;SDS011;20617;49.476;10.986;2022-10-20T12:54:06;5.53;;;3.65;;
12878;SDS011;20617;49.476;10.986;2022-10-20T12:56:21;5.57;;;3.70;;
12878;SDS011;20617;49.476;10.986;2022-10-20T12:58:30;7.82;;;3.85;;
12878;SDS011;20617;49.476;10.986;2022-10-20T13:05:46;6.85;;;3.30;;
12878;SDS011;20617;49.476;10.986;2022-10-20T13:07:58;7.80;;;3.50;;
12878;SDS011;20617;49.476;10.986;2022-10-20T13:12:32;9.55;;;4.38;;
12878;SDS011;20617;49.476;10.986;2022-10-20T13:14:47;4.60;;;3.20;;
12878;SDS011;20617;49.476;10.986;2022-10-20T13:17:00;6.32;;;3.45;;
12878;SDS011;20617;49.476;10.986;2022-10-20T13:19:17;5.30;;;3.20;;